Apollo Residential Mortgage (AMTG) Latest Bloomsberg Price


Mffais Ranking #2570 Overall / #45 Industry
Industry: Mortgage Finance

Number of Companies: 67 (Ranking #2051 Overall/#32 Industry)
Inflow: $ 0 (K) (Ranking #3061 Overall/#45 Industry)
Outflow: $ -130,896 (K)
Mffais Flow: $ -130,896 (K) (Ranking #2570 Overall/#45 Industry)


Receive a FREE weekly executive review of stocks moving into the top 10, taking the top industy spot or moving up within their industry. Sent directly to your Inbox every Saturday. Sign up today and get last week's review immediately sent to you.

We value and respect your privacy. Please read our Terms and Conditions which states our firm commitment to your privacy. Your email address will not be shared with a third party, nor will it be sold or used for purposes other than subscription for the weekly review.

Owner CPOR Shares Action Qty Chg Invested (K) Total Current Value (K)
Texan Capital Management 2016-09-30 32,404 No Change 0 $ 0 $ 440
Ifp Advisors Inc 2016-09-30 0 Sold All -25 $ -0 $ 0
Financial Architects Inc 2016-09-30 0 Sold All -200 $ -2 $ 0
Piedmont Investment Advisors Llc 2016-09-30 0 Sold All -228 $ -3 $ 0
Penserra Capital Management Llc 2016-09-30 0 Sold All -341 $ -4 $ 0
Ladenburg Thalmann Financial Services Inc 2016-09-30 0 Sold All -350 $ -4 $ 0
Creative Planning 2016-09-30 0 Sold All -415 $ -5 $ 0
Zurcher Kantonalbank Zurich Cantonalbank 2016-09-30 0 Sold All -572 $ -7 $ 0
Msi Financial Services Inc 2016-09-30 0 Sold All -600 $ -8 $ 0
Enterprise Financial Services Corp 2016-09-30 0 Sold All -1,035 $ -14 $ 0
Cutler Group Lp 2016-09-30 0 Sold All -1,219 $ -16 $ 0
Us Bancorp De 2016-09-30 0 Sold All -1,400 $ -19 $ 0
Advisor Group Inc 2016-09-30 0 Sold All -1,700 $ -23 $ 0
Pnc Financial Services Group Inc 2016-09-30 0 Sold All -2,400 $ -32 $ 0
Tower Research Capital Llc Trc 2016-09-30 0 Sold All -3,597 $ -48 $ 0
Teacher Retirement System Of Texas 2016-09-30 0 Sold All -4,470 $ -60 $ 0
Sphinx Trading Lp 2016-09-30 0 Sold All -4,796 $ -65 $ 0
Envestnet Asset Management Inc 2016-09-30 0 Sold All -4,853 $ -66 $ 0
Legal General Group Plc 2016-09-30 0 Sold All -5,817 $ -79 $ 0
Blackrock Inc 2016-09-30 0 Sold All -9,030 $ -122 $ 0
Barings Llc 2016-09-30 0 Sold All -10,500 $ -142 $ 0
Strs Ohio 2016-09-30 0 Sold All -10,600 $ -144 $ 0
Counsel Portfolio Services Inc 2016-06-30 0 Sold All -10,783 $ -144 $ 0
Quantitative Systematic Strategies Llc 2016-09-30 0 Sold All -10,851 $ -147 $ 0
Summit Securities Group Llc 2016-09-30 0 Sold All -13,412 $ -182 $ 0
Guggenheim Capital Llc 2016-09-30 0 Sold All -15,455 $ -210 $ 0
American International Group Inc 2016-09-30 0 Sold All -18,403 $ -250 $ 0
Cacti Asset Management Llc 2016-09-30 0 Sold All -20,000 $ -272 $ 0
Nationwide Fund Advisors 2016-09-30 0 Sold All -20,905 $ -284 $ 0
Css Llc Il 2016-09-30 0 Sold All -25,000 $ -340 $ 0
Indexiq Advisors Llc 2016-09-30 0 Sold All -25,447 $ -346 $ 0
Ontario Teachers Pension Plan Board 2016-09-30 0 Sold All -28,900 $ -393 $ 0
New York State Common Retirement Fund 2016-09-30 0 Sold All -29,300 $ -398 $ 0
Peak6 Investments L P 2016-09-30 0 Sold All -31,211 $ -424 $ 0
Walleye Trading Llc 2016-09-30 0 Sold All -34,670 $ -471 $ 0
Kidder Stephen W 2016-09-30 0 Sold All -38,770 $ -527 $ 0
Rhumbline Advisers 2016-09-30 0 Sold All -40,335 $ -548 $ 0
Wedbush Securities Inc 2016-09-30 0 Sold All -51,159 $ -695 $ 0
William Harris Investors Inc 2016-09-30 0 Sold All -53,900 $ -733 $ 0
Capital Fund Management S A 2016-09-30 0 Sold All -55,571 $ -755 $ 0
Mariner Investment Group Llc 2016-09-30 0 Sold All -56,100 $ -762 $ 0
Cambridge Investment Research Advisors Inc 2016-09-30 0 Sold All -64,238 $ -873 $ 0
California State Teachers Retirement System 2016-09-30 0 Sold All -67,162 $ -913 $ 0
Swiss National Bank 2016-09-30 0 Sold All -73,800 $ -1,003 $ 0
Kassirer Asset Management Corp 2016-09-30 0 Sold All -75,000 $ -1,020 $ 0
Westchester Capital Management Llc 2016-09-30 0 Sold All -76,862 $ -1,045 $ 0
Ascend Capital Llc 2016-09-30 0 Sold All -89,292 $ -1,214 $ 0
Kazazian Asset Management Llc 2016-09-30 0 Sold All -98,015 $ -1,333 $ 0
Chicago Equity Partners Llc 2016-09-30 0 Sold All -101,143 $ -1,375 $ 0
Menta Capital Llc 2016-09-30 0 Sold All -113,970 $ -1,549 $ 0
Rothschild Asset Management Inc 2016-09-30 0 Sold All -114,544 $ -1,557 $ 0
Teachers Advisors Llc 2016-09-30 0 Sold All -119,671 $ -1,627 $ 0
Parametric Portfolio Associates Llc 2016-09-30 0 Sold All -134,097 $ -1,823 $ 0
Blackrock Investment Management Llc 2016-09-30 0 Sold All -136,812 $ -1,860 $ 0
Panagora Asset Management Inc 2016-09-30 0 Sold All -174,773 $ -2,376 $ 0
Ancora Advisors Llc 2016-09-30 0 Sold All -180,478 $ -2,454 $ 0
Springbok Capital Management Llc 2016-09-30 0 Sold All -271,797 $ -3,696 $ 0
Pyrrho Capital Management Lp 2016-09-30 0 Sold All -295,000 $ -4,012 $ 0
Northern Trust Corp 2016-09-30 0 Sold All -359,728 $ -4,892 $ 0
Yorktown Management Research Co Inc 2016-09-30 0 Sold All -380,000 $ -5,168 $ 0
Foundry Partners Llc 2016-09-30 0 Sold All -380,768 $ -5,178 $ 0
Gardner Lewis Asset Management L P 2016-09-30 0 Sold All -467,036 $ -6,351 $ 0
Omers Administration Corp 2016-09-30 0 Sold All -622,854 $ -8,470 $ 0
Whitebox Advisors Llc 2016-09-30 0 Sold All -696,165 $ -9,467 $ 0
American Financial Group Inc 2016-09-30 0 Sold All -898,594 $ -12,220 $ 0
Mangrove Partners 2016-09-30 0 Sold All -1,152,442 $ -15,673 $ 0
Glg Partners Lp 2016-09-30 0 Sold All -1,836,355 $ -24,974 $ 0